sensor_id;sensor_type;location;lat;lon;timestamp;P1;durP1;ratioP1;P2;durP2;ratioP2
73132;SDS011;61320;52.008;4.530;2023-03-01T00:01:31;23.27;;;23.27;;
73132;SDS011;61320;52.008;4.530;2023-03-01T00:03:57;23.12;;;23.12;;
73132;SDS011;61320;52.008;4.530;2023-03-01T00:06:24;23.38;;;23.38;;
73132;SDS011;61320;52.008;4.530;2023-03-01T00:08:51;23.68;;;23.50;;
73132;SDS011;61320;52.008;4.530;2023-03-01T00:11:30;23.26;;;23.26;;
73132;SDS011;61320;52.008;4.530;2023-03-01T00:13:58;23.34;;;23.34;;
73132;SDS011;61320;52.008;4.530;2023-03-01T00:16:33;22.97;;;22.97;;
73132;SDS011;61320;52.008;4.530;2023-03-01T00:19:01;23.60;;;23.60;;
73132;SDS011;61320;52.008;4.530;2023-03-01T00:21:27;23.16;;;23.16;;
73132;SDS011;61320;52.008;4.530;2023-03-01T00:23:53;23.41;;;23.41;;
73132;SDS011;61320;52.008;4.530;2023-03-01T00:26:21;23.64;;;23.59;;
73132;SDS011;61320;52.008;4.530;2023-03-01T00:28:48;24.11;;;24.07;;
73132;SDS011;61320;52.008;4.530;2023-03-01T00:31:15;23.29;;;23.29;;
73132;SDS011;61320;52.008;4.530;2023-03-01T00:33:44;24.31;;;24.26;;
73132;SDS011;61320;52.008;4.530;2023-03-01T00:36:11;24.89;;;24.79;;
73132;SDS011;61320;52.008;4.530;2023-03-01T00:38:40;24.52;;;24.29;;
73132;SDS011;61320;52.008;4.530;2023-03-01T00:41:09;24.39;;;24.38;;
73132;SDS011;61320;52.008;4.530;2023-03-01T00:43:37;24.44;;;24.43;;
73132;SDS011;61320;52.008;4.530;2023-03-01T00:46:04;24.19;;;24.17;;
73132;SDS011;61320;52.008;4.530;2023-03-01T00:48:32;24.26;;;24.25;;
73132;SDS011;61320;52.008;4.530;2023-03-01T00:51:08;23.85;;;23.85;;
73132;SDS011;61320;52.008;4.530;2023-03-01T00:53:34;24.42;;;24.42;;
73132;SDS011;61320;52.008;4.530;2023-03-01T00:56:01;24.63;;;24.63;;
73132;SDS011;61320;52.008;4.530;2023-03-01T00:58:28;24.08;;;24.08;;
73132;SDS011;61320;52.008;4.530;2023-03-01T01:00:53;23.84;;;23.84;;
73132;SDS011;61320;52.008;4.530;2023-03-01T01:03:19;23.63;;;23.63;;
73132;SDS011;61320;52.008;4.530;2023-03-01T01:05:45;24.10;;;24.10;;
73132;SDS011;61320;52.008;4.530;2023-03-01T01:08:11;23.78;;;23.78;;
73132;SDS011;61320;52.008;4.530;2023-03-01T01:10:37;24.32;;;24.32;;
73132;SDS011;61320;52.008;4.530;2023-03-01T01:13:03;24.16;;;24.16;;
73132;SDS011;61320;52.008;4.530;2023-03-01T01:15:32;23.84;;;23.84;;
73132;SDS011;61320;52.008;4.530;2023-03-01T01:17:59;24.34;;;24.34;;
73132;SDS011;61320;52.008;4.530;2023-03-01T01:20:25;24.05;;;24.05;;
73132;SDS011;61320;52.008;4.530;2023-03-01T01:22:51;24.51;;;24.50;;
73132;SDS011;61320;52.008;4.530;2023-03-01T01:25:17;24.35;;;24.35;;
73132;SDS011;61320;52.008;4.530;2023-03-01T01:27:42;24.45;;;24.42;;
73132;SDS011;61320;52.008;4.530;2023-03-01T01:30:08;25.27;;;25.27;;
73132;SDS011;61320;52.008;4.530;2023-03-01T01:32:34;24.97;;;24.95;;
73132;SDS011;61320;52.008;4.530;2023-03-01T01:34:59;24.49;;;24.46;;
73132;SDS011;61320;52.008;4.530;2023-03-01T01:37:24;24.94;;;24.93;;
73132;SDS011;61320;52.008;4.530;2023-03-01T01:39:59;25.53;;;25.40;;
73132;SDS011;61320;52.008;4.530;2023-03-01T01:42:26;25.48;;;25.45;;
73132;SDS011;61320;52.008;4.530;2023-03-01T01:47:57;25.95;;;25.95;;
73132;SDS011;61320;52.008;4.530;2023-03-01T01:50:38;26.39;;;26.35;;
73132;SDS011;61320;52.008;4.530;2023-03-01T01:53:09;26.56;;;26.50;;
73132;SDS011;61320;52.008;4.530;2023-03-01T01:55:40;27.06;;;27.05;;
73132;SDS011;61320;52.008;4.530;2023-03-01T01:58:11;27.14;;;26.98;;
73132;SDS011;61320;52.008;4.530;2023-03-01T02:00:42;27.62;;;27.50;;
73132;SDS011;61320;52.008;4.530;2023-03-01T02:03:13;27.70;;;27.36;;
73132;SDS011;61320;52.008;4.530;2023-03-01T02:05:56;27.49;;;27.20;;
73132;SDS011;61320;52.008;4.530;2023-03-01T02:08:29;28.64;;;28.40;;
73132;SDS011;61320;52.008;4.530;2023-03-01T02:10:58;27.81;;;27.74;;
73132;SDS011;61320;52.008;4.530;2023-03-01T02:13:25;28.42;;;28.33;;
73132;SDS011;61320;52.008;4.530;2023-03-01T02:15:51;28.06;;;27.84;;
73132;SDS011;61320;52.008;4.530;2023-03-01T02:18:18;29.13;;;28.55;;
73132;SDS011;61320;52.008;4.530;2023-03-01T02:23:46;29.31;;;29.22;;
73132;SDS011;61320;52.008;4.530;2023-03-01T02:26:20;28.84;;;28.80;;
73132;SDS011;61320;52.008;4.530;2023-03-01T02:28:53;30.01;;;29.75;;
73132;SDS011;61320;52.008;4.530;2023-03-01T02:31:19;29.02;;;28.78;;
73132;SDS011;61320;52.008;4.530;2023-03-01T02:34:05;30.70;;;29.76;;
73132;SDS011;61320;52.008;4.530;2023-03-01T02:36:37;29.39;;;29.29;;
73132;SDS011;61320;52.008;4.530;2023-03-01T02:39:15;29.28;;;29.28;;
73132;SDS011;61320;52.008;4.530;2023-03-01T02:41:46;29.35;;;28.96;;
73132;SDS011;61320;52.008;4.530;2023-03-01T02:44:19;31.38;;;30.65;;
73132;SDS011;61320;52.008;4.530;2023-03-01T02:46:48;31.21;;;30.80;;
73132;SDS011;61320;52.008;4.530;2023-03-01T02:49:19;30.70;;;29.95;;
73132;SDS011;61320;52.008;4.530;2023-03-01T02:54:48;30.67;;;30.43;;
73132;SDS011;61320;52.008;4.530;2023-03-01T02:57:27;31.36;;;30.72;;
73132;SDS011;61320;52.008;4.530;2023-03-01T02:59:55;31.71;;;31.08;;
73132;SDS011;61320;52.008;4.530;2023-03-01T03:02:25;32.10;;;31.46;;
73132;SDS011;61320;52.008;4.530;2023-03-01T03:05:07;31.17;;;31.02;;
73132;SDS011;61320;52.008;4.530;2023-03-01T03:07:36;31.95;;;31.39;;
73132;SDS011;61320;52.008;4.530;2023-03-01T03:10:05;32.90;;;32.29;;
73132;SDS011;61320;52.008;4.530;2023-03-01T03:12:32;31.50;;;31.22;;
73132;SDS011;61320;52.008;4.530;2023-03-01T03:14:58;32.43;;;32.08;;
73132;SDS011;61320;52.008;4.530;2023-03-01T03:17:23;32.79;;;31.74;;
73132;SDS011;61320;52.008;4.530;2023-03-01T03:19:49;33.79;;;32.92;;
73132;SDS011;61320;52.008;4.530;2023-03-01T03:22:14;33.28;;;32.73;;
73132;SDS011;61320;52.008;4.530;2023-03-01T03:24:40;32.43;;;31.96;;
73132;SDS011;61320;52.008;4.530;2023-03-01T03:27:06;32.36;;;31.76;;
73132;SDS011;61320;52.008;4.530;2023-03-01T03:29:33;32.17;;;31.54;;
73132;SDS011;61320;52.008;4.530;2023-03-01T03:31:58;32.67;;;32.25;;
73132;SDS011;61320;52.008;4.530;2023-03-01T03:34:24;33.35;;;32.61;;
73132;SDS011;61320;52.008;4.530;2023-03-01T03:36:56;32.09;;;31.20;;
73132;SDS011;61320;52.008;4.530;2023-03-01T03:39:24;32.43;;;31.90;;
73132;SDS011;61320;52.008;4.530;2023-03-01T03:41:52;32.02;;;31.77;;
73132;SDS011;61320;52.008;4.530;2023-03-01T03:44:18;33.17;;;32.72;;
73132;SDS011;61320;52.008;4.530;2023-03-01T03:46:44;34.50;;;33.66;;
73132;SDS011;61320;52.008;4.530;2023-03-01T03:49:10;35.12;;;33.89;;
73132;SDS011;61320;52.008;4.530;2023-03-01T03:51:35;35.15;;;34.22;;
73132;SDS011;61320;52.008;4.530;2023-03-01T03:54:01;35.99;;;35.14;;
73132;SDS011;61320;52.008;4.530;2023-03-01T03:56:26;35.32;;;35.06;;
73132;SDS011;61320;52.008;4.530;2023-03-01T03:58:52;35.93;;;35.34;;
73132;SDS011;61320;52.008;4.530;2023-03-01T04:01:17;36.47;;;35.24;;
73132;SDS011;61320;52.008;4.530;2023-03-01T04:03:43;38.22;;;36.96;;
73132;SDS011;61320;52.008;4.530;2023-03-01T04:06:12;38.17;;;37.45;;
73132;SDS011;61320;52.008;4.530;2023-03-01T04:08:39;40.54;;;39.04;;
73132;SDS011;61320;52.008;4.530;2023-03-01T04:11:06;40.61;;;38.78;;
73132;SDS011;61320;52.008;4.530;2023-03-01T04:13:51;42.10;;;40.42;;
73132;SDS011;61320;52.008;4.530;2023-03-01T04:16:18;41.45;;;39.99;;
73132;SDS011;61320;52.008;4.530;2023-03-01T04:18:44;40.97;;;39.57;;
73132;SDS011;61320;52.008;4.530;2023-03-01T04:21:10;41.70;;;39.71;;
73132;SDS011;61320;52.008;4.530;2023-03-01T04:23:36;41.61;;;40.38;;
73132;SDS011;61320;52.008;4.530;2023-03-01T04:26:02;40.79;;;39.26;;
73132;SDS011;61320;52.008;4.530;2023-03-01T04:31:01;38.38;;;37.14;;
73132;SDS011;61320;52.008;4.530;2023-03-01T04:33:38;38.87;;;37.72;;
73132;SDS011;61320;52.008;4.530;2023-03-01T04:36:09;35.74;;;34.82;;
73132;SDS011;61320;52.008;4.530;2023-03-01T04:38:36;35.87;;;34.98;;
73132;SDS011;61320;52.008;4.530;2023-03-01T04:41:04;33.46;;;33.03;;
73132;SDS011;61320;52.008;4.530;2023-03-01T04:43:31;32.19;;;32.02;;
73132;SDS011;61320;52.008;4.530;2023-03-01T04:46:02;31.83;;;31.33;;
73132;SDS011;61320;52.008;4.530;2023-03-01T04:48:31;32.58;;;32.09;;
73132;SDS011;61320;52.008;4.530;2023-03-01T04:51:00;32.79;;;32.14;;
73132;SDS011;61320;52.008;4.530;2023-03-01T04:53:26;32.31;;;32.09;;
73132;SDS011;61320;52.008;4.530;2023-03-01T04:55:53;31.85;;;31.31;;
73132;SDS011;61320;52.008;4.530;2023-03-01T04:58:19;32.83;;;32.17;;
73132;SDS011;61320;52.008;4.530;2023-03-01T05:00:45;32.70;;;32.03;;
73132;SDS011;61320;52.008;4.530;2023-03-01T05:03:10;30.74;;;30.56;;
73132;SDS011;61320;52.008;4.530;2023-03-01T05:05:36;30.82;;;30.50;;
73132;SDS011;61320;52.008;4.530;2023-03-01T05:08:05;32.40;;;31.66;;
73132;SDS011;61320;52.008;4.530;2023-03-01T05:10:33;30.36;;;30.25;;
73132;SDS011;61320;52.008;4.530;2023-03-01T05:13:00;30.56;;;29.95;;
73132;SDS011;61320;52.008;4.530;2023-03-01T05:15:29;28.58;;;28.45;;
73132;SDS011;61320;52.008;4.530;2023-03-01T05:17:57;27.75;;;27.51;;
73132;SDS011;61320;52.008;4.530;2023-03-01T05:20:25;27.84;;;27.73;;
73132;SDS011;61320;52.008;4.530;2023-03-01T05:22:55;27.42;;;27.26;;
73132;SDS011;61320;52.008;4.530;2023-03-01T05:25:23;27.96;;;27.95;;
73132;SDS011;61320;52.008;4.530;2023-03-01T05:27:50;27.53;;;27.51;;
73132;SDS011;61320;52.008;4.530;2023-03-01T05:30:16;27.50;;;27.41;;
73132;SDS011;61320;52.008;4.530;2023-03-01T05:32:43;27.08;;;27.02;;
73132;SDS011;61320;52.008;4.530;2023-03-01T05:35:15;27.26;;;27.24;;
73132;SDS011;61320;52.008;4.530;2023-03-01T05:37:46;27.49;;;27.46;;
73132;SDS011;61320;52.008;4.530;2023-03-01T05:40:14;26.95;;;26.94;;
73132;SDS011;61320;52.008;4.530;2023-03-01T05:42:45;27.71;;;27.65;;
73132;SDS011;61320;52.008;4.530;2023-03-01T05:45:12;28.46;;;28.40;;
73132;SDS011;61320;52.008;4.530;2023-03-01T05:47:42;29.02;;;28.99;;
73132;SDS011;61320;52.008;4.530;2023-03-01T05:52:39;28.18;;;27.89;;
73132;SDS011;61320;52.008;4.530;2023-03-01T05:55:05;28.17;;;27.84;;
73132;SDS011;61320;52.008;4.530;2023-03-01T05:57:31;27.67;;;27.62;;
73132;SDS011;61320;52.008;4.530;2023-03-01T05:59:56;28.33;;;28.33;;
73132;SDS011;61320;52.008;4.530;2023-03-01T06:02:22;28.64;;;28.61;;
73132;SDS011;61320;52.008;4.530;2023-03-01T06:04:48;28.13;;;27.89;;
73132;SDS011;61320;52.008;4.530;2023-03-01T06:07:13;28.36;;;28.23;;
73132;SDS011;61320;52.008;4.530;2023-03-01T06:09:38;28.21;;;28.19;;
73132;SDS011;61320;52.008;4.530;2023-03-01T06:12:04;28.61;;;28.51;;
73132;SDS011;61320;52.008;4.530;2023-03-01T06:14:30;28.75;;;28.67;;
73132;SDS011;61320;52.008;4.530;2023-03-01T06:16:55;28.97;;;28.89;;
73132;SDS011;61320;52.008;4.530;2023-03-01T06:19:21;29.50;;;29.37;;
73132;SDS011;61320;52.008;4.530;2023-03-01T06:21:46;29.18;;;28.99;;
73132;SDS011;61320;52.008;4.530;2023-03-01T06:24:11;29.94;;;29.36;;
73132;SDS011;61320;52.008;4.530;2023-03-01T06:26:37;29.44;;;29.37;;
73132;SDS011;61320;52.008;4.530;2023-03-01T06:29:02;29.21;;;29.10;;
73132;SDS011;61320;52.008;4.530;2023-03-01T06:31:28;29.48;;;29.34;;
73132;SDS011;61320;52.008;4.530;2023-03-01T06:33:53;29.32;;;29.25;;
73132;SDS011;61320;52.008;4.530;2023-03-01T06:36:19;29.57;;;29.34;;
73132;SDS011;61320;52.008;4.530;2023-03-01T06:38:46;30.19;;;30.13;;
73132;SDS011;61320;52.008;4.530;2023-03-01T06:41:11;30.19;;;30.02;;
73132;SDS011;61320;52.008;4.530;2023-03-01T06:43:37;30.75;;;30.59;;
73132;SDS011;61320;52.008;4.530;2023-03-01T06:46:05;31.06;;;30.31;;
73132;SDS011;61320;52.008;4.530;2023-03-01T06:48:32;31.29;;;30.95;;
73132;SDS011;61320;52.008;4.530;2023-03-01T06:50:59;32.22;;;31.76;;
73132;SDS011;61320;52.008;4.530;2023-03-01T06:53:26;32.25;;;32.03;;
73132;SDS011;61320;52.008;4.530;2023-03-01T06:55:58;31.51;;;31.26;;
73132;SDS011;61320;52.008;4.530;2023-03-01T06:58:25;30.78;;;30.61;;
73132;SDS011;61320;52.008;4.530;2023-03-01T07:00:51;30.25;;;30.25;;
73132;SDS011;61320;52.008;4.530;2023-03-01T07:03:17;30.71;;;30.54;;
73132;SDS011;61320;52.008;4.530;2023-03-01T07:05:42;31.86;;;31.07;;
73132;SDS011;61320;52.008;4.530;2023-03-01T07:08:09;31.48;;;31.35;;
73132;SDS011;61320;52.008;4.530;2023-03-01T07:10:35;30.46;;;30.19;;
73132;SDS011;61320;52.008;4.530;2023-03-01T07:13:00;31.17;;;30.89;;
73132;SDS011;61320;52.008;4.530;2023-03-01T07:15:26;31.25;;;31.09;;
73132;SDS011;61320;52.008;4.530;2023-03-01T07:17:53;31.10;;;31.10;;
73132;SDS011;61320;52.008;4.530;2023-03-01T07:20:19;30.31;;;30.06;;
73132;SDS011;61320;52.008;4.530;2023-03-01T07:22:49;29.80;;;29.75;;
73132;SDS011;61320;52.008;4.530;2023-03-01T07:25:15;29.33;;;29.32;;
73132;SDS011;61320;52.008;4.530;2023-03-01T07:27:41;30.09;;;30.07;;
73132;SDS011;61320;52.008;4.530;2023-03-01T07:30:07;28.76;;;28.67;;
73132;SDS011;61320;52.008;4.530;2023-03-01T07:32:33;28.98;;;28.78;;
73132;SDS011;61320;52.008;4.530;2023-03-01T07:34:58;28.34;;;28.34;;
73132;SDS011;61320;52.008;4.530;2023-03-01T07:37:24;29.51;;;29.37;;
73132;SDS011;61320;52.008;4.530;2023-03-01T07:39:49;28.55;;;28.53;;
73132;SDS011;61320;52.008;4.530;2023-03-01T07:42:15;28.99;;;28.99;;
73132;SDS011;61320;52.008;4.530;2023-03-01T07:44:40;30.05;;;30.04;;
73132;SDS011;61320;52.008;4.530;2023-03-01T07:47:05;32.00;;;31.90;;
73132;SDS011;61320;52.008;4.530;2023-03-01T07:49:32;32.97;;;32.54;;
73132;SDS011;61320;52.008;4.530;2023-03-01T07:51:57;33.35;;;33.34;;
73132;SDS011;61320;52.008;4.530;2023-03-01T07:54:23;34.65;;;34.40;;
73132;SDS011;61320;52.008;4.530;2023-03-01T07:56:49;34.84;;;34.83;;
73132;SDS011;61320;52.008;4.530;2023-03-01T07:59:14;33.61;;;33.57;;
73132;SDS011;61320;52.008;4.530;2023-03-01T08:01:39;32.93;;;32.83;;
73132;SDS011;61320;52.008;4.530;2023-03-01T08:04:05;31.87;;;31.82;;
73132;SDS011;61320;52.008;4.530;2023-03-01T08:06:33;32.91;;;32.55;;
73132;SDS011;61320;52.008;4.530;2023-03-01T08:09:00;32.97;;;32.66;;
73132;SDS011;61320;52.008;4.530;2023-03-01T08:11:25;32.80;;;32.65;;
73132;SDS011;61320;52.008;4.530;2023-03-01T08:13:53;32.83;;;32.77;;
73132;SDS011;61320;52.008;4.530;2023-03-01T08:16:18;32.66;;;32.61;;
73132;SDS011;61320;52.008;4.530;2023-03-01T08:18:44;33.79;;;33.42;;
73132;SDS011;61320;52.008;4.530;2023-03-01T08:21:11;33.61;;;33.27;;
73132;SDS011;61320;52.008;4.530;2023-03-01T08:23:40;33.41;;;33.35;;
73132;SDS011;61320;52.008;4.530;2023-03-01T08:26:11;35.02;;;34.60;;
73132;SDS011;61320;52.008;4.530;2023-03-01T08:28:42;34.39;;;33.99;;
73132;SDS011;61320;52.008;4.530;2023-03-01T08:31:21;35.16;;;34.50;;
73132;SDS011;61320;52.008;4.530;2023-03-01T08:33:53;35.67;;;35.20;;
73132;SDS011;61320;52.008;4.530;2023-03-01T08:36:22;35.53;;;34.56;;
73132;SDS011;61320;52.008;4.530;2023-03-01T08:38:49;33.59;;;33.31;;
73132;SDS011;61320;52.008;4.530;2023-03-01T08:41:15;34.56;;;33.92;;
73132;SDS011;61320;52.008;4.530;2023-03-01T08:43:40;33.18;;;33.06;;
73132;SDS011;61320;52.008;4.530;2023-03-01T08:46:06;32.63;;;32.50;;
73132;SDS011;61320;52.008;4.530;2023-03-01T08:48:32;32.44;;;32.17;;
73132;SDS011;61320;52.008;4.530;2023-03-01T08:51:06;33.08;;;32.39;;
73132;SDS011;61320;52.008;4.530;2023-03-01T08:53:32;31.98;;;31.70;;
73132;SDS011;61320;52.008;4.530;2023-03-01T08:55:59;31.31;;;31.12;;
73132;SDS011;61320;52.008;4.530;2023-03-01T08:58:27;31.86;;;31.22;;
73132;SDS011;61320;52.008;4.530;2023-03-01T09:00:53;31.38;;;31.02;;
73132;SDS011;61320;52.008;4.530;2023-03-01T09:03:18;30.28;;;30.21;;
73132;SDS011;61320;52.008;4.530;2023-03-01T09:05:44;28.77;;;28.74;;
73132;SDS011;61320;52.008;4.530;2023-03-01T09:08:11;29.17;;;29.01;;
73132;SDS011;61320;52.008;4.530;2023-03-01T09:10:37;26.84;;;26.74;;
73132;SDS011;61320;52.008;4.530;2023-03-01T09:13:04;26.70;;;26.62;;
73132;SDS011;61320;52.008;4.530;2023-03-01T09:15:29;24.61;;;24.57;;
73132;SDS011;61320;52.008;4.530;2023-03-01T09:17:55;24.43;;;24.42;;
73132;SDS011;61320;52.008;4.530;2023-03-01T09:20:20;24.15;;;23.99;;
73132;SDS011;61320;52.008;4.530;2023-03-01T09:22:46;24.63;;;24.48;;
73132;SDS011;61320;52.008;4.530;2023-03-01T09:25:11;24.20;;;24.03;;
73132;SDS011;61320;52.008;4.530;2023-03-01T09:27:37;22.92;;;22.75;;
73132;SDS011;61320;52.008;4.530;2023-03-01T09:30:03;22.69;;;22.42;;
73132;SDS011;61320;52.008;4.530;2023-03-01T09:32:32;22.39;;;22.30;;
73132;SDS011;61320;52.008;4.530;2023-03-01T09:34:58;20.39;;;20.36;;
73132;SDS011;61320;52.008;4.530;2023-03-01T09:37:28;19.40;;;19.35;;
73132;SDS011;61320;52.008;4.530;2023-03-01T09:39:54;18.12;;;17.76;;
73132;SDS011;61320;52.008;4.530;2023-03-01T09:42:20;17.90;;;17.64;;
73132;SDS011;61320;52.008;4.530;2023-03-01T09:44:57;16.89;;;16.88;;
73132;SDS011;61320;52.008;4.530;2023-03-01T09:47:32;16.88;;;16.74;;
73132;SDS011;61320;52.008;4.530;2023-03-01T09:53:00;16.87;;;16.87;;
73132;SDS011;61320;52.008;4.530;2023-03-01T09:55:44;15.18;;;15.18;;
73132;SDS011;61320;52.008;4.530;2023-03-01T10:03:58;12.84;;;12.83;;
73132;SDS011;61320;52.008;4.530;2023-03-01T10:06:58;12.38;;;12.38;;
73132;SDS011;61320;52.008;4.530;2023-03-01T10:09:36;12.62;;;12.60;;
73132;SDS011;61320;52.008;4.530;2023-03-01T10:12:06;12.80;;;12.78;;
73132;SDS011;61320;52.008;4.530;2023-03-01T10:14:38;11.97;;;11.95;;
73132;SDS011;61320;52.008;4.530;2023-03-01T10:17:14;11.48;;;11.48;;
73132;SDS011;61320;52.008;4.530;2023-03-01T10:19:50;11.29;;;11.29;;
73132;SDS011;61320;52.008;4.530;2023-03-01T10:22:18;11.69;;;11.60;;
73132;SDS011;61320;52.008;4.530;2023-03-01T10:24:55;11.03;;;11.03;;
73132;SDS011;61320;52.008;4.530;2023-03-01T10:30:18;11.09;;;11.09;;
73132;SDS011;61320;52.008;4.530;2023-03-01T10:33:00;10.08;;;10.08;;
73132;SDS011;61320;52.008;4.530;2023-03-01T10:35:28;9.99;;;9.97;;
73132;SDS011;61320;52.008;4.530;2023-03-01T10:38:11;10.34;;;10.34;;
73132;SDS011;61320;52.008;4.530;2023-03-01T10:40:50;9.77;;;9.77;;
73132;SDS011;61320;52.008;4.530;2023-03-01T10:43:24;9.95;;;9.95;;
73132;SDS011;61320;52.008;4.530;2023-03-01T10:45:57;10.75;;;10.75;;
73132;SDS011;61320;52.008;4.530;2023-03-01T10:48:23;11.84;;;11.84;;
73132;SDS011;61320;52.008;4.530;2023-03-01T10:53:44;13.67;;;13.67;;
73132;SDS011;61320;52.008;4.530;2023-03-01T10:56:15;15.10;;;15.10;;
73132;SDS011;61320;52.008;4.530;2023-03-01T10:58:56;14.74;;;14.74;;
73132;SDS011;61320;52.008;4.530;2023-03-01T11:01:28;15.27;;;15.26;;
73132;SDS011;61320;52.008;4.530;2023-03-01T11:06:35;14.15;;;14.04;;
73132;SDS011;61320;52.008;4.530;2023-03-01T11:11:44;13.22;;;13.22;;
73132;SDS011;61320;52.008;4.530;2023-03-01T11:14:17;13.76;;;13.76;;
73132;SDS011;61320;52.008;4.530;2023-03-01T11:17:05;14.07;;;14.07;;
73132;SDS011;61320;52.008;4.530;2023-03-01T11:19:40;14.95;;;14.95;;
73132;SDS011;61320;52.008;4.530;2023-03-01T11:22:13;15.38;;;15.38;;
73132;SDS011;61320;52.008;4.530;2023-03-01T11:24:47;15.85;;;15.60;;
73132;SDS011;61320;52.008;4.530;2023-03-01T11:27:20;20.17;;;19.95;;
73132;SDS011;61320;52.008;4.530;2023-03-01T11:29:52;20.24;;;20.17;;
73132;SDS011;61320;52.008;4.530;2023-03-01T11:32:20;16.32;;;16.31;;
73132;SDS011;61320;52.008;4.530;2023-03-01T11:35:02;15.71;;;15.65;;
73132;SDS011;61320;52.008;4.530;2023-03-01T11:43:04;16.15;;;16.15;;
73132;SDS011;61320;52.008;4.530;2023-03-01T11:48:24;15.18;;;15.18;;
73132;SDS011;61320;52.008;4.530;2023-03-01T11:50:59;15.26;;;15.23;;
73132;SDS011;61320;52.008;4.530;2023-03-01T11:56:21;15.39;;;15.15;;
73132;SDS011;61320;52.008;4.530;2023-03-01T12:02:07;32.88;;;32.22;;
73132;SDS011;61320;52.008;4.530;2023-03-01T12:04:50;19.01;;;18.67;;
73132;SDS011;61320;52.008;4.530;2023-03-01T12:10:27;16.54;;;16.52;;
73132;SDS011;61320;52.008;4.530;2023-03-01T12:13:18;17.17;;;17.09;;
73132;SDS011;61320;52.008;4.530;2023-03-01T12:16:02;17.36;;;17.28;;
73132;SDS011;61320;52.008;4.530;2023-03-01T12:27:26;17.12;;;17.08;;
73132;SDS011;61320;52.008;4.530;2023-03-01T12:33:09;18.13;;;17.97;;
73132;SDS011;61320;52.008;4.530;2023-03-01T12:38:50;15.79;;;15.67;;
73132;SDS011;61320;52.008;4.530;2023-03-01T12:44:39;14.49;;;14.49;;
73132;SDS011;61320;52.008;4.530;2023-03-01T12:50:05;14.47;;;14.45;;
73132;SDS011;61320;52.008;4.530;2023-03-01T12:52:41;14.39;;;14.31;;
73132;SDS011;61320;52.008;4.530;2023-03-01T12:55:18;14.07;;;14.07;;
73132;SDS011;61320;52.008;4.530;2023-03-01T13:06:32;13.57;;;13.57;;
73132;SDS011;61320;52.008;4.530;2023-03-01T13:17:50;10.84;;;10.84;;
73132;SDS011;61320;52.008;4.530;2023-03-01T13:20:22;11.18;;;11.18;;
73132;SDS011;61320;52.008;4.530;2023-03-01T13:31:56;9.19;;;9.19;;
73132;SDS011;61320;52.008;4.530;2023-03-01T13:44:17;9.85;;;9.85;;
73132;SDS011;61320;52.008;4.530;2023-03-01T13:46:46;10.19;;;10.16;;
73132;SDS011;61320;52.008;4.530;2023-03-01T13:49:16;9.90;;;9.84;;
73132;SDS011;61320;52.008;4.530;2023-03-01T13:51:46;9.18;;;9.18;;
73132;SDS011;61320;52.008;4.530;2023-03-01T13:54:14;9.04;;;9.04;;
73132;SDS011;61320;52.008;4.530;2023-03-01T13:56:44;9.00;;;9.00;;
73132;SDS011;61320;52.008;4.530;2023-03-01T13:59:14;9.21;;;9.21;;
73132;SDS011;61320;52.008;4.530;2023-03-01T14:01:42;9.00;;;8.97;;
73132;SDS011;61320;52.008;4.530;2023-03-01T14:04:27;9.56;;;9.56;;
73132;SDS011;61320;52.008;4.530;2023-03-01T14:09:52;9.62;;;9.62;;
73132;SDS011;61320;52.008;4.530;2023-03-01T14:20:16;8.75;;;8.75;;
73132;SDS011;61320;52.008;4.530;2023-03-01T14:22:45;9.33;;;9.22;;
73132;SDS011;61320;52.008;4.530;2023-03-01T14:25:26;9.35;;;9.32;;
73132;SDS011;61320;52.008;4.530;2023-03-01T14:27:54;9.40;;;9.40;;
73132;SDS011;61320;52.008;4.530;2023-03-01T14:30:43;9.61;;;9.57;;
73132;SDS011;61320;52.008;4.530;2023-03-01T14:33:23;9.87;;;9.70;;
73132;SDS011;61320;52.008;4.530;2023-03-01T14:36:11;9.27;;;9.27;;
73132;SDS011;61320;52.008;4.530;2023-03-01T14:38:41;9.59;;;9.59;;
73132;SDS011;61320;52.008;4.530;2023-03-01T14:41:09;9.51;;;9.51;;
73132;SDS011;61320;52.008;4.530;2023-03-01T14:43:36;9.07;;;9.07;;
73132;SDS011;61320;52.008;4.530;2023-03-01T14:46:05;9.30;;;9.30;;
73132;SDS011;61320;52.008;4.530;2023-03-01T14:48:30;9.03;;;9.03;;
73132;SDS011;61320;52.008;4.530;2023-03-01T14:50:57;8.78;;;8.78;;
73132;SDS011;61320;52.008;4.530;2023-03-01T14:53:25;9.03;;;9.03;;
73132;SDS011;61320;52.008;4.530;2023-03-01T14:56:00;8.72;;;8.71;;
73132;SDS011;61320;52.008;4.530;2023-03-01T14:58:31;8.59;;;8.59;;
73132;SDS011;61320;52.008;4.530;2023-03-01T15:00:59;8.83;;;8.83;;
73132;SDS011;61320;52.008;4.530;2023-03-01T15:03:32;8.55;;;8.55;;
73132;SDS011;61320;52.008;4.530;2023-03-01T15:06:02;7.99;;;7.98;;
73132;SDS011;61320;52.008;4.530;2023-03-01T15:08:30;8.08;;;8.08;;
73132;SDS011;61320;52.008;4.530;2023-03-01T15:13:28;8.91;;;8.91;;
73132;SDS011;61320;52.008;4.530;2023-03-01T15:16:01;8.15;;;8.15;;
73132;SDS011;61320;52.008;4.530;2023-03-01T15:18:45;8.29;;;8.29;;
73132;SDS011;61320;52.008;4.530;2023-03-01T15:21:21;7.86;;;7.86;;
73132;SDS011;61320;52.008;4.530;2023-03-01T15:23:50;8.24;;;8.24;;
73132;SDS011;61320;52.008;4.530;2023-03-01T15:26:28;8.45;;;8.45;;
73132;SDS011;61320;52.008;4.530;2023-03-01T15:28:57;8.73;;;8.60;;
73132;SDS011;61320;52.008;4.530;2023-03-01T15:31:25;8.65;;;8.65;;
73132;SDS011;61320;52.008;4.530;2023-03-01T15:33:52;8.20;;;8.19;;
73132;SDS011;61320;52.008;4.530;2023-03-01T15:36:36;8.32;;;8.32;;
73132;SDS011;61320;52.008;4.530;2023-03-01T15:39:22;7.91;;;7.91;;
73132;SDS011;61320;52.008;4.530;2023-03-01T15:42:07;8.05;;;8.05;;
73132;SDS011;61320;52.008;4.530;2023-03-01T15:44:38;8.23;;;8.23;;
73132;SDS011;61320;52.008;4.530;2023-03-01T15:47:31;8.92;;;8.81;;
73132;SDS011;61320;52.008;4.530;2023-03-01T15:49:57;9.34;;;9.28;;
73132;SDS011;61320;52.008;4.530;2023-03-01T15:52:29;9.05;;;8.96;;
73132;SDS011;61320;52.008;4.530;2023-03-01T15:55:05;9.05;;;9.05;;
73132;SDS011;61320;52.008;4.530;2023-03-01T15:57:40;9.57;;;9.43;;
73132;SDS011;61320;52.008;4.530;2023-03-01T16:00:05;9.48;;;9.41;;
73132;SDS011;61320;52.008;4.530;2023-03-01T16:02:39;9.43;;;9.43;;
73132;SDS011;61320;52.008;4.530;2023-03-01T16:05:08;9.06;;;9.06;;
73132;SDS011;61320;52.008;4.530;2023-03-01T16:07:43;9.22;;;9.15;;
73132;SDS011;61320;52.008;4.530;2023-03-01T16:10:08;10.32;;;10.17;;
73132;SDS011;61320;52.008;4.530;2023-03-01T16:12:34;10.69;;;10.42;;
73132;SDS011;61320;52.008;4.530;2023-03-01T16:15:00;10.19;;;10.12;;
73132;SDS011;61320;52.008;4.530;2023-03-01T16:17:25;10.29;;;10.25;;
73132;SDS011;61320;52.008;4.530;2023-03-01T16:19:51;10.01;;;9.98;;
73132;SDS011;61320;52.008;4.530;2023-03-01T16:22:16;10.04;;;10.02;;
73132;SDS011;61320;52.008;4.530;2023-03-01T16:24:42;9.96;;;9.96;;
73132;SDS011;61320;52.008;4.530;2023-03-01T16:27:07;9.66;;;9.66;;
73132;SDS011;61320;52.008;4.530;2023-03-01T16:29:33;9.74;;;9.74;;
73132;SDS011;61320;52.008;4.530;2023-03-01T16:32:01;10.26;;;10.25;;
73132;SDS011;61320;52.008;4.530;2023-03-01T16:34:27;9.86;;;9.86;;
73132;SDS011;61320;52.008;4.530;2023-03-01T16:36:53;9.73;;;9.73;;
73132;SDS011;61320;52.008;4.530;2023-03-01T16:39:18;10.24;;;10.24;;
73132;SDS011;61320;52.008;4.530;2023-03-01T16:41:43;10.20;;;10.20;;